Wrangell, AK

4:50 PM AKDT on September 24, 2016 (GMT -0800)
Wrangell

Weather History for PAWG - November, 2012

Change the Weather History Date:

Tuesday, November 20, 2012

  Actual Average Record
Temperature  
Mean Temperature 34 °F -  
Max Temperature 35 °F 38 °F 53 °F (1979)
Min Temperature 33 °F 29 °F 10 °F (1963)
Degree Days  
Heating Degree Days 31    
Moisture  
Dew Point 18 °F    
Average Humidity 51    
Maximum Humidity 70    
Minimum Humidity 44    
Precipitation  
Precipitation 0.00 in - - ()
Sea Level Pressure  
Sea Level Pressure 29.46 in    
Wind  
Wind Speed 15 mph (East)    
Max Wind Speed 23 mph    
Max Gust Speed 33 mph    
Visibility 10 miles    
Events      
Averages and records for this station are not official NWS values.
T = Trace of Precipitation, MM = Missing Value Source: NWS Daily Summary

Daily Weather History Graph

Daily Weather History Graph

Search for Another Location

Airport or City:

Trip Planner

Search our weather history database for the weather conditions in past years. The results will help you decide how hot, cold, wet, or windy it might be!

Date:

Astronomy

Nov. 20, 2012 Rise Set
Actual Time 7:40 AM AKST 3:29 PM AKST
Civil Twilight 6:55 AM AKST 4:14 PM AKST
Nautical Twilight 6:08 AM AKST 5:01 PM AKST
Astronomical Twilight 5:23 AM AKST 5:46 PM AKST
Moon 12:35 PM AKST (11/20) 11:58 PM AKST (11/20)
Length of Visible Light 9h 18m
Length of Day
7h 49m
First Quarter, 53% of the Moon is Illuminated
Nov 20
First Quarter
Nov 28
Full
Dec 6
Last Quarter
Dec 12
New
Dec 19
First Quarter

Hourly Weather History & Observations

Time (AKST) Temp. Windchill Dew Point Humidity Pressure Visibility Wind Dir Wind Speed Gust Speed Precip Events Conditions
12:16 AM 35.6 °F 28.0 °F 19.4 °F 52% 29.45 in 10.0 mi East 10.4 mph - N/A   Overcast
12:36 AM 35.6 °F 31.7 °F 21.2 °F 56% 29.46 in 10.0 mi East 4.6 mph - N/A   Mostly Cloudy
12:56 AM 33.8 °F 23.2 °F 24.8 °F 70% 29.46 in 10.0 mi East 17.3 mph - N/A   Mostly Cloudy
1:16 AM 35.6 °F 26.2 °F 23.0 °F 60% 29.47 in 10.0 mi East 15.0 mph 19.6 mph N/A   Mostly Cloudy
1:36 AM 33.8 °F 23.9 °F 21.2 °F 60% 29.47 in 10.0 mi East 15.0 mph 18.4 mph N/A   Mostly Cloudy
1:56 AM 33.8 °F 23.9 °F 21.2 °F 60% 29.48 in 10.0 mi ESE 15.0 mph 20.7 mph N/A   Mostly Cloudy
2:16 AM 35.6 °F 25.2 °F 21.2 °F 56% 29.49 in 10.0 mi East 18.4 mph 24.2 mph N/A   Scattered Clouds
2:36 AM 33.8 °F 23.2 °F 23.0 °F 65% 29.50 in 10.0 mi East 17.3 mph - N/A   Mostly Cloudy
2:56 AM 33.8 °F 23.9 °F 23.0 °F 65% 29.51 in 10.0 mi East 15.0 mph 21.9 mph N/A   Overcast
3:16 AM 33.8 °F 23.9 °F 21.2 °F 60% 29.51 in 10.0 mi East 15.0 mph 23.0 mph N/A   Overcast
3:36 AM 33.8 °F 23.9 °F 21.2 °F 60% 29.51 in 10.0 mi East 15.0 mph - N/A   Overcast
3:56 AM 33.8 °F 24.3 °F 21.2 °F 60% 29.52 in 10.0 mi ESE 13.8 mph 20.7 mph N/A   Overcast
4:16 AM 33.8 °F 23.9 °F 21.2 °F 60% 29.52 in 10.0 mi East 15.0 mph 18.4 mph N/A   Mostly Cloudy
4:36 AM 33.8 °F 24.8 °F 21.2 °F 60% 29.52 in 10.0 mi East 12.7 mph 21.9 mph N/A   Scattered Clouds
4:56 AM 33.8 °F 23.9 °F 21.2 °F 60% 29.52 in 10.0 mi East 15.0 mph - N/A   Clear
5:16 AM 33.8 °F 23.5 °F 19.4 °F 56% 29.52 in 10.0 mi East 16.1 mph 19.6 mph N/A   Clear
5:36 AM 33.8 °F 23.5 °F 19.4 °F 56% 29.52 in 10.0 mi East 16.1 mph 23.0 mph N/A   Clear
5:56 AM 33.8 °F 24.8 °F 19.4 °F 56% 29.53 in 10.0 mi ESE 12.7 mph 23.0 mph N/A   Clear
6:16 AM 33.8 °F 23.2 °F 21.2 °F 60% 29.53 in 10.0 mi East 17.3 mph - N/A   Clear
6:36 AM 33.8 °F 23.5 °F 19.4 °F 56% 29.52 in 10.0 mi East 16.1 mph 21.9 mph N/A   Clear
6:56 AM 33.8 °F 23.9 °F 19.4 °F 56% 29.52 in 10.0 mi East 15.0 mph 26.5 mph N/A   Clear
7:16 AM 33.8 °F 23.2 °F 17.6 °F 52% 29.52 in 10.0 mi ESE 17.3 mph 28.8 mph N/A   Clear
7:36 AM 33.8 °F 22.5 °F 19.4 °F 56% 29.52 in 10.0 mi East 19.6 mph 28.8 mph N/A   Clear
7:56 AM 33.8 °F 22.8 °F 17.6 °F 52% 29.51 in 10.0 mi East 18.4 mph 29.9 mph N/A   Clear
8:16 AM 33.8 °F 21.9 °F 17.6 °F 52% 29.51 in 10.0 mi ESE 21.9 mph 29.9 mph N/A   Clear
8:36 AM 33.8 °F 23.9 °F 17.6 °F 52% 29.51 in 10.0 mi ESE 15.0 mph 26.5 mph N/A   Clear
8:56 AM 33.8 °F 22.8 °F 17.6 °F 52% 29.50 in 10.0 mi ESE 18.4 mph 26.5 mph N/A   Partly Cloudy
9:16 AM 33.8 °F 23.2 °F 17.6 °F 52% 29.50 in 10.0 mi East 17.3 mph 24.2 mph N/A   Partly Cloudy
9:36 AM 33.8 °F 24.8 °F 19.4 °F 56% 29.51 in 10.0 mi East 12.7 mph 19.6 mph N/A   Partly Cloudy
9:56 AM 33.8 °F 24.3 °F 17.6 °F 52% 29.50 in 10.0 mi ESE 13.8 mph 19.6 mph N/A   Partly Cloudy
10:16 AM 33.8 °F 22.8 °F 19.4 °F 56% 29.49 in 10.0 mi ESE 18.4 mph 24.2 mph N/A   Partly Cloudy
10:36 AM 35.6 °F 26.2 °F 19.4 °F 52% 29.50 in 10.0 mi ESE 15.0 mph 23.0 mph N/A   Partly Cloudy
10:56 AM 35.6 °F 27.5 °F 17.6 °F 48% 29.50 in 10.0 mi East 11.5 mph - N/A   Partly Cloudy
11:16 AM 35.6 °F 28.6 °F 19.4 °F 52% 29.50 in 10.0 mi ESE 9.2 mph - N/A   Partly Cloudy
11:36 AM 35.6 °F 27.5 °F 19.4 °F 52% 29.49 in 10.0 mi East 11.5 mph 17.3 mph N/A   Partly Cloudy
11:56 AM 35.6 °F 27.1 °F 19.4 °F 52% 29.48 in 10.0 mi ESE 12.7 mph - N/A   Partly Cloudy
12:16 PM 35.6 °F 27.1 °F 17.6 °F 48% 29.48 in 10.0 mi ESE 12.7 mph 18.4 mph N/A   Partly Cloudy
12:36 PM 35.6 °F 26.6 °F 17.6 °F 48% 29.47 in 10.0 mi East 13.8 mph 17.3 mph N/A   Partly Cloudy
12:56 PM 35.6 °F 26.2 °F 17.6 °F 48% 29.46 in 10.0 mi ESE 15.0 mph 20.7 mph N/A   Partly Cloudy
1:16 PM 35.6 °F 25.5 °F 17.6 °F 48% 29.44 in 10.0 mi East 17.3 mph 23.0 mph N/A   Partly Cloudy
1:36 PM 35.6 °F 27.1 °F 17.6 °F 48% 29.44 in 10.0 mi East 12.7 mph 27.6 mph N/A   Partly Cloudy
1:56 PM 35.6 °F 25.2 °F 15.8 °F 44% 29.43 in 10.0 mi ESE 18.4 mph 24.2 mph N/A   Partly Cloudy
2:16 PM 35.6 °F 25.5 °F 19.4 °F 52% 29.44 in 10.0 mi East 17.3 mph 24.2 mph N/A   Partly Cloudy
2:36 PM 35.6 °F 25.9 °F 15.8 °F 44% 29.43 in 10.0 mi ESE 16.1 mph 25.3 mph N/A   Partly Cloudy
2:56 PM 35.6 °F 24.5 °F 15.8 °F 44% 29.42 in 10.0 mi ESE 20.7 mph 28.8 mph N/A   Partly Cloudy
3:16 PM 35.6 °F 24.5 °F 17.6 °F 48% 29.42 in 10.0 mi East 20.7 mph 29.9 mph N/A   Partly Cloudy
3:36 PM 35.6 °F 25.5 °F 17.6 °F 48% 29.42 in 10.0 mi East 17.3 mph 25.3 mph N/A   Partly Cloudy
3:56 PM 35.6 °F 24.8 °F 15.8 °F 44% 29.41 in 10.0 mi East 19.6 mph 28.8 mph N/A   Partly Cloudy
4:16 PM 35.6 °F 26.2 °F 17.6 °F 48% 29.42 in 10.0 mi East 15.0 mph 26.5 mph N/A   Clear
4:36 PM 35.6 °F 25.5 °F 15.8 °F 44% 29.42 in 10.0 mi ESE 17.3 mph - N/A   Clear
4:56 PM 35.6 °F 26.2 °F 15.8 °F 44% 29.41 in 10.0 mi ESE 15.0 mph 23.0 mph N/A   Clear
5:16 PM 35.6 °F 25.2 °F 17.6 °F 48% 29.41 in 10.0 mi East 18.4 mph 23.0 mph N/A   Clear
5:36 PM 35.6 °F 24.2 °F 15.8 °F 44% 29.40 in 10.0 mi East 21.9 mph 29.9 mph N/A   Clear
5:56 PM 35.6 °F 28.0 °F 15.8 °F 44% 29.41 in 10.0 mi East 10.4 mph 27.6 mph N/A   Clear
6:16 PM 35.6 °F 27.1 °F 15.8 °F 44% 29.41 in 10.0 mi East 12.7 mph - N/A   Clear
6:36 PM 35.6 °F 25.2 °F 17.6 °F 48% 29.40 in 10.0 mi East 18.4 mph 23.0 mph N/A   Clear
6:56 PM 35.6 °F 25.9 °F 17.6 °F 48% 29.41 in 10.0 mi East 16.1 mph 21.9 mph N/A   Clear
7:16 PM 35.6 °F 26.6 °F 15.8 °F 44% 29.42 in 10.0 mi East 13.8 mph 19.6 mph N/A   Clear
7:36 PM 35.6 °F 25.9 °F 15.8 °F 44% 29.41 in 10.0 mi East 16.1 mph 21.9 mph N/A   Clear
7:56 PM 35.6 °F 25.2 °F 15.8 °F 44% 29.41 in 10.0 mi East 18.4 mph 25.3 mph N/A   Overcast
8:16 PM 35.6 °F 25.2 °F 15.8 °F 44% 29.42 in 10.0 mi ESE 18.4 mph 27.6 mph N/A   Overcast
8:36 PM 35.6 °F 25.9 °F 17.6 °F 48% 29.42 in 10.0 mi East 16.1 mph 25.3 mph N/A   Overcast
8:56 PM 35.6 °F 27.1 °F 17.6 °F 48% 29.42 in 10.0 mi ESE 12.7 mph 26.5 mph N/A   Overcast
9:16 PM 35.6 °F 24.5 °F 17.6 °F 48% 29.41 in 10.0 mi East 20.7 mph 28.8 mph N/A   Overcast
9:36 PM 35.6 °F 24.5 °F 15.8 °F 44% 29.41 in 10.0 mi East 20.7 mph 33.4 mph N/A   Overcast
9:56 PM 33.8 °F 21.9 °F 15.8 °F 48% 29.41 in 10.0 mi East 21.9 mph 28.8 mph N/A   Overcast
10:16 PM 33.8 °F 21.6 °F 17.6 °F 52% 29.41 in 10.0 mi East 23.0 mph 29.9 mph N/A   Overcast
10:36 PM 33.8 °F 23.5 °F 15.8 °F 48% 29.43 in 10.0 mi East 16.1 mph 24.2 mph N/A   Overcast
10:56 PM 35.6 °F 24.5 °F 17.6 °F 48% 29.43 in 10.0 mi East 20.7 mph 27.6 mph N/A   Overcast
11:16 PM 33.8 °F 24.8 °F 15.8 °F 48% 29.45 in 10.0 mi East 12.7 mph 16.1 mph N/A   Overcast
11:36 PM 35.6 °F 28.6 °F 15.8 °F 44% 29.46 in 10.0 mi East 9.2 mph - N/A   Overcast
11:56 PM 35.6 °F 29.2 °F 15.8 °F 44% 29.47 in 10.0 mi East 8.1 mph - N/A   Overcast